Time;durP1;ratioP1;P1;durP2;ratioP2;P2;SDS_P1;SDS_P2;PMS_P1;PMS_P2;Temp;Humidity;BMP_temperature;BMP_pressure;BME280_temperature;BME280_humidity;BME280_pressure;Samples;Min_cycle;Max_cycle;Signal;HPM_P1;HPM_P2
2024/01/02 00:01:57;;;;;;;109.50;18.80;;;;;;;;;;4994173;28;20058;-88
2024/01/02 00:04:24;;;;;;;71.20;17.95;;;;;;;;;;4982963;28;20548;-88
2024/01/02 00:06:51;;;;;;;66.88;17.88;;;;;;;;;;4980553;28;20031;-88
2024/01/02 00:09:18;;;;;;;105.25;18.55;;;;;;;;;;4982574;28;20641;-88
2024/01/02 00:11:44;;;;;;;52.10;16.63;;;;;;;;;;4982495;28;20422;-88
2024/01/02 00:14:11;;;;;;;51.42;16.08;;;;;;;;;;4989849;28;20042;-88
2024/01/02 00:16:37;;;;;;;108.35;20.42;;;;;;;;;;4979752;28;20038;-88
2024/01/02 00:19:04;;;;;;;87.43;18.42;;;;;;;;;;4983755;28;20039;-88
2024/01/02 00:21:31;;;;;;;86.03;18.02;;;;;;;;;;4982933;28;20030;-88
2024/01/02 00:23:58;;;;;;;103.93;19.52;;;;;;;;;;4980073;28;20042;-89
2024/01/02 00:26:25;;;;;;;75.10;17.73;;;;;;;;;;4980790;28;20493;-88
2024/01/02 00:28:52;;;;;;;68.65;17.90;;;;;;;;;;4983047;28;20043;-89
2024/01/02 00:31:19;;;;;;;105.10;20.20;;;;;;;;;;4987680;28;20093;-88
2024/01/02 00:33:46;;;;;;;51.58;14.70;;;;;;;;;;4989879;28;20096;-88
2024/01/02 00:36:12;;;;;;;83.63;18.15;;;;;;;;;;4979756;28;20057;-88
2024/01/02 00:38:39;;;;;;;119.50;20.02;;;;;;;;;;4973137;28;20054;-88
2024/01/02 00:41:06;;;;;;;72.78;17.33;;;;;;;;;;4994258;28;20039;-87
2024/01/02 00:43:32;;;;;;;70.90;17.75;;;;;;;;;;4985119;28;20138;-88
2024/01/02 00:46:00;;;;;;;119.30;20.40;;;;;;;;;;4980577;28;20042;-88
2024/01/02 00:48:26;;;;;;;87.93;18.38;;;;;;;;;;5000379;28;20053;-89
2024/01/02 00:50:53;;;;;;;76.43;17.73;;;;;;;;;;4988875;28;20066;-88
2024/01/02 00:53:20;;;;;;;89.15;17.77;;;;;;;;;;4984731;28;20074;-89
2024/01/02 00:55:47;;;;;;;57.88;15.52;;;;;;;;;;4982354;28;20038;-89
2024/01/02 00:58:13;;;;;;;77.10;18.20;;;;;;;;;;4981017;28;20038;-89
2024/01/02 01:00:40;;;;;;;115.53;19.27;;;;;;;;;;4988817;28;20046;-89
2024/01/02 01:03:07;;;;;;;88.43;18.45;;;;;;;;;;4979968;28;20475;-88
2024/01/02 01:05:34;;;;;;;87.68;18.83;;;;;;;;;;4983524;28;20046;-89
2024/01/02 01:08:00;;;;;;;120.05;21.13;;;;;;;;;;4980660;28;20041;-89
2024/01/02 01:10:27;;;;;;;59.60;16.67;;;;;;;;;;4989106;28;20035;-89
2024/01/02 01:12:54;;;;;;;61.28;17.20;;;;;;;;;;4955734;28;20053;-89
2024/01/02 01:15:21;;;;;;;82.13;16.88;;;;;;;;;;4976008;28;20046;-89
2024/01/02 01:17:50;;;;;;;50.83;15.32;;;;;;;;;;4986751;28;20038;-89
2024/01/02 01:20:17;;;;;;;62.22;16.83;;;;;;;;;;4982121;28;20449;-89
2024/01/02 01:22:44;;;;;;;125.03;19.42;;;;;;;;;;4984583;28;20041;-89
2024/01/02 01:25:11;;;;;;;65.72;16.05;;;;;;;;;;4986707;28;20046;-89
2024/01/02 01:27:38;;;;;;;88.00;18.33;;;;;;;;;;4977930;28;20038;-89
2024/01/02 01:30:04;;;;;;;94.13;18.45;;;;;;;;;;4982934;28;20050;-88
2024/01/02 01:32:31;;;;;;;91.53;16.77;;;;;;;;;;4978270;28;20039;-89
2024/01/02 01:34:58;;;;;;;68.43;17.05;;;;;;;;;;4994415;28;20050;-88
2024/01/02 01:37:25;;;;;;;59.95;15.60;;;;;;;;;;4980632;28;20039;-88
2024/01/02 01:39:51;;;;;;;61.72;16.00;;;;;;;;;;4987628;28;20061;-89
2024/01/02 01:42:18;;;;;;;53.13;15.07;;;;;;;;;;4979972;28;20035;-89
2024/01/02 01:44:45;;;;;;;94.07;17.33;;;;;;;;;;4988686;28;20522;-89
2024/01/02 01:47:11;;;;;;;85.68;15.95;;;;;;;;;;4994145;28;20102;-89
2024/01/02 01:49:38;;;;;;;81.07;17.40;;;;;;;;;;4985474;28;20066;-89
2024/01/02 01:52:05;;;;;;;79.85;16.40;;;;;;;;;;4979034;28;20050;-89
2024/01/02 01:54:32;;;;;;;98.05;17.52;;;;;;;;;;4982442;28;20568;-89
2024/01/02 01:56:59;;;;;;;51.92;14.95;;;;;;;;;;4995093;28;20097;-89
2024/01/02 01:59:26;;;;;;;65.53;16.17;;;;;;;;;;4987551;28;20129;-89
2024/01/02 02:01:53;;;;;;;73.70;16.98;;;;;;;;;;4973464;28;20043;-89
2024/01/02 02:04:21;;;;;;;57.60;16.08;;;;;;;;;;4969056;28;20785;-89
2024/01/02 02:06:47;;;;;;;51.47;15.77;;;;;;;;;;4968750;28;20059;-89
2024/01/02 02:09:14;;;;;;;107.60;18.13;;;;;;;;;;4968639;28;20493;-89
2024/01/02 02:11:41;;;;;;;89.85;18.52;;;;;;;;;;4969181;28;20038;-89
2024/01/02 02:14:08;;;;;;;83.07;17.20;;;;;;;;;;4955798;28;20051;-89
2024/01/02 02:16:35;;;;;;;105.43;18.35;;;;;;;;;;4973987;28;20058;-88
2024/01/02 02:19:02;;;;;;;71.45;15.68;;;;;;;;;;4968043;28;20710;-88
2024/01/02 02:21:29;;;;;;;62.53;14.82;;;;;;;;;;4972701;28;20042;-89
2024/01/02 02:23:56;;;;;;;93.72;17.65;;;;;;;;;;4956760;28;20494;-89
2024/01/02 02:26:22;;;;;;;69.05;16.25;;;;;;;;;;4972133;28;20043;-88
2024/01/02 02:28:49;;;;;;;71.15;16.33;;;;;;;;;;4973995;28;20034;-88
2024/01/02 02:31:16;;;;;;;98.75;18.38;;;;;;;;;;4950126;28;20482;-89
2024/01/02 02:33:43;;;;;;;62.40;16.02;;;;;;;;;;4971274;28;20055;-89
2024/01/02 02:36:10;;;;;;;70.13;16.55;;;;;;;;;;4973706;28;20043;-89
2024/01/02 02:38:37;;;;;;;120.47;19.08;;;;;;;;;;4949545;28;20043;-89
2024/01/02 02:41:03;;;;;;;71.32;16.95;;;;;;;;;;4973270;28;20117;-89
2024/01/02 02:43:30;;;;;;;68.78;16.88;;;;;;;;;;4972351;28;20438;-89
2024/01/02 02:45:57;;;;;;;70.55;16.05;;;;;;;;;;4973559;28;20049;-89
2024/01/02 02:48:23;;;;;;;63.05;15.15;;;;;;;;;;4969216;28;20066;-89
2024/01/02 02:50:50;;;;;;;60.05;14.15;;;;;;;;;;4973604;28;20078;-89
2024/01/02 02:53:18;;;;;;;105.78;18.05;;;;;;;;;;4955430;28;20073;-89
2024/01/02 02:55:45;;;;;;;62.83;14.95;;;;;;;;;;4971952;28;20061;-89
2024/01/02 02:58:12;;;;;;;71.70;14.45;;;;;;;;;;4973603;28;20042;-89
2024/01/02 03:00:39;;;;;;;120.00;18.85;;;;;;;;;;4968185;28;20039;-88
2024/01/02 03:03:06;;;;;;;83.22;15.13;;;;;;;;;;4972139;28;20133;-89
2024/01/02 03:05:32;;;;;;;66.90;15.35;;;;;;;;;;4988500;28;20504;-89
2024/01/02 03:07:59;;;;;;;90.93;17.10;;;;;;;;;;4973254;28;20118;-89
2024/01/02 03:10:26;;;;;;;73.38;16.48;;;;;;;;;;4971308;28;20130;-89
2024/01/02 03:12:53;;;;;;;60.65;14.52;;;;;;;;;;4976843;28;20042;-89
2024/01/02 03:15:19;;;;;;;88.40;16.38;;;;;;;;;;4971545;28;20073;-89
2024/01/02 03:17:46;;;;;;;66.55;15.68;;;;;;;;;;4952558;28;20034;-88
2024/01/02 03:20:13;;;;;;;88.35;16.02;;;;;;;;;;4972115;28;20050;-89
2024/01/02 03:22:40;;;;;;;131.02;18.17;;;;;;;;;;4972810;28;20078;-89
2024/01/02 03:25:07;;;;;;;62.63;13.77;;;;;;;;;;4972292;28;20043;-89
2024/01/02 03:27:34;;;;;;;70.90;14.93;;;;;;;;;;4971713;28;20046;-89
2024/01/02 03:30:01;;;;;;;86.32;15.20;;;;;;;;;;4967012;28;20128;-89
2024/01/02 03:32:27;;;;;;;80.70;14.93;;;;;;;;;;4968074;28;20043;-89
2024/01/02 03:34:54;;;;;;;53.25;14.95;;;;;;;;;;4969933;28;20048;-89
2024/01/02 03:37:21;;;;;;;93.80;16.55;;;;;;;;;;4971258;28;20031;-89
2024/01/02 03:39:48;;;;;;;45.85;12.10;;;;;;;;;;4970865;28;20043;-89
2024/01/02 03:42:15;;;;;;;71.50;14.43;;;;;;;;;;4967629;28;20065;-89
2024/01/02 03:44:41;;;;;;;91.78;16.13;;;;;;;;;;4955168;28;20065;-89
2024/01/02 03:47:08;;;;;;;82.88;15.68;;;;;;;;;;4970755;28;20157;-89
2024/01/02 03:49:35;;;;;;;90.55;16.33;;;;;;;;;;4948357;28;20058;-89
2024/01/02 03:52:02;;;;;;;83.70;15.60;;;;;;;;;;4969519;28;20046;-89
2024/01/02 03:54:29;;;;;;;77.10;16.10;;;;;;;;;;4971972;28;20043;-89
2024/01/02 03:56:56;;;;;;;57.10;16.30;;;;;;;;;;4971334;28;20371;-89
2024/01/02 03:59:22;;;;;;;72.55;16.95;;;;;;;;;;4972105;28;20486;-89
2024/01/02 04:01:49;;;;;;;57.55;16.13;;;;;;;;;;4972173;28;20081;-89
2024/01/02 04:04:16;;;;;;;90.95;18.27;;;;;;;;;;4971153;28;20042;-89
2024/01/02 04:06:42;;;;;;;80.38;16.00;;;;;;;;;;4970411;28;20053;-89
2024/01/02 04:09:10;;;;;;;135.88;19.08;;;;;;;;;;4971686;28;20039;-90
2024/01/02 04:11:37;;;;;;;97.25;16.80;;;;;;;;;;4984625;28;20042;-89
2024/01/02 04:14:04;;;;;;;95.75;16.10;;;;;;;;;;4945503;28;20050;-89
2024/01/02 04:16:30;;;;;;;71.30;14.82;;;;;;;;;;4970714;28;20126;-90
2024/01/02 04:18:57;;;;;;;67.82;15.00;;;;;;;;;;4971974;28;20132;-90
2024/01/02 04:21:24;;;;;;;51.10;12.85;;;;;;;;;;4953088;28;20045;-90
2024/01/02 04:23:51;;;;;;;71.28;14.57;;;;;;;;;;4971992;28;20046;-89
2024/01/02 04:26:18;;;;;;;79.25;14.85;;;;;;;;;;4970091;28;20414;-88
2024/01/02 04:28:44;;;;;;;80.25;16.27;;;;;;;;;;4970668;28;20042;-90
2024/01/02 04:31:11;;;;;;;109.90;17.38;;;;;;;;;;4970482;28;20046;-90
2024/01/02 04:33:38;;;;;;;113.00;17.70;;;;;;;;;;4971926;28;20043;-90
2024/01/02 04:36:05;;;;;;;77.18;14.23;;;;;;;;;;4969699;28;20468;-90
2024/01/02 04:38:33;;;;;;;106.43;17.20;;;;;;;;;;4970157;28;20035;-89
2024/01/02 04:41:00;;;;;;;72.57;14.60;;;;;;;;;;4969849;28;20486;-90
2024/01/02 04:43:30;;;;;;;84.22;14.88;;;;;;;;;;4966877;28;20046;-90
2024/01/02 04:45:58;;;;;;;96.18;15.38;;;;;;;;;;4952708;28;20039;-90
2024/01/02 04:48:29;;;;;;;71.75;13.73;;;;;;;;;;4947765;28;20050;-90
2024/01/02 04:50:58;;;;;;;109.45;16.83;;;;;;;;;;4952462;28;20043;-89
2024/01/02 04:53:27;;;;;;;52.40;12.93;;;;;;;;;;4970013;28;20113;-90
2024/01/02 04:55:57;;;;;;;67.00;13.48;;;;;;;;;;4967811;28;20138;-89
2024/01/02 04:58:24;;;;;;;82.43;15.27;;;;;;;;;;4966639;28;20039;-89
2024/01/02 05:00:51;;;;;;;61.60;13.55;;;;;;;;;;4969850;28;20141;-89
2024/01/02 05:03:17;;;;;;;90.45;15.63;;;;;;;;;;4970848;28;20053;-89
2024/01/02 05:05:44;;;;;;;101.45;15.55;;;;;;;;;;4953949;28;20049;-88
2024/01/02 05:08:11;;;;;;;81.90;15.48;;;;;;;;;;4970367;28;20553;-89
2024/01/02 05:10:38;;;;;;;67.65;14.32;;;;;;;;;;4946360;28;20050;-89
2024/01/02 05:13:04;;;;;;;93.40;15.57;;;;;;;;;;4946563;28;20042;-89
2024/01/02 05:15:31;;;;;;;72.43;14.45;;;;;;;;;;4948556;28;20066;-89
2024/01/02 05:18:01;;;;;;;67.13;13.38;;;;;;;;;;4969860;28;20031;-88
2024/01/02 05:20:47;;;;;;;;;;;;;;;;;;;;;
2024/01/02 05:23:57;;;;;;;199.35;20.90;;;;;;;;;;4888163;28;20049;-88
2024/01/02 05:26:44;;;;;;;;;;;;;;;;;;;;;
2024/01/02 05:29:22;;;;;;;87.35;16.70;;;;;;;;;;4968814;28;20070;-89
2024/01/02 05:31:49;;;;;;;89.97;18.98;;;;;;;;;;4969755;28;20101;-89
2024/01/02 05:34:15;;;;;;;111.03;18.35;;;;;;;;;;4967016;28;20038;-89
2024/01/02 05:36:44;;;;;;;97.30;16.30;;;;;;;;;;4970787;28;20038;-89
2024/01/02 05:39:11;;;;;;;99.45;17.42;;;;;;;;;;4970218;28;20046;-89
2024/01/02 05:41:37;;;;;;;91.95;16.48;;;;;;;;;;4985451;28;20689;-89
2024/01/02 05:44:04;;;;;;;69.32;15.02;;;;;;;;;;4969353;28;20676;-89
2024/01/02 05:46:31;;;;;;;59.72;14.68;;;;;;;;;;4969804;28;20051;-89
2024/01/02 05:48:57;;;;;;;82.38;15.02;;;;;;;;;;4972985;28;20087;-88
2024/01/02 05:51:24;;;;;;;93.60;15.75;;;;;;;;;;4974607;28;20464;-89
2024/01/02 05:53:51;;;;;;;64.43;13.85;;;;;;;;;;4975003;28;20051;-89
2024/01/02 05:56:17;;;;;;;91.88;16.05;;;;;;;;;;4972247;28;20046;-88
2024/01/02 05:58:44;;;;;;;83.28;14.57;;;;;;;;;;4974180;28;20043;-89
2024/01/02 06:01:11;;;;;;;51.72;14.23;;;;;;;;;;4971259;28;20049;-89
2024/01/02 06:03:39;;;;;;;93.50;16.60;;;;;;;;;;4974147;28;20054;-89
2024/01/02 06:06:06;;;;;;;65.80;14.10;;;;;;;;;;4971609;28;20133;-89
2024/01/02 06:08:36;;;;;;;69.88;15.82;;;;;;;;;;4971632;28;20073;-88
2024/01/02 06:11:02;;;;;;;89.30;17.30;;;;;;;;;;4972191;28;20400;-86
2024/01/02 06:13:29;;;;;;;75.72;16.63;;;;;;;;;;4973001;28;20050;-88
2024/01/02 06:15:55;;;;;;;52.55;14.38;;;;;;;;;;4972541;28;20051;-87
2024/01/02 06:18:22;;;;;;;106.20;18.13;;;;;;;;;;4972133;28;20035;-87
2024/01/02 06:20:57;;;;;;;59.65;14.30;;;;;;;;;;4971772;28;20153;-88
2024/01/02 06:23:26;;;;;;;73.25;15.55;;;;;;;;;;4972363;28;20129;-88
2024/01/02 06:25:52;;;;;;;112.80;19.10;;;;;;;;;;4972988;28;20142;-88
2024/01/02 06:28:19;;;;;;;60.33;15.07;;;;;;;;;;4974124;28;20049;-88
2024/01/02 06:30:46;;;;;;;94.75;16.48;;;;;;;;;;4970761;28;20047;-86
2024/01/02 06:33:13;;;;;;;72.15;16.17;;;;;;;;;;4972917;28;20050;-87
2024/01/02 06:35:40;;;;;;;83.05;15.73;;;;;;;;;;4973424;28;20062;-88
2024/01/02 06:38:09;;;;;;;76.72;15.43;;;;;;;;;;4972348;28;20121;-91
2024/01/02 06:40:36;;;;;;;82.88;16.05;;;;;;;;;;4973349;28;20042;-89
2024/01/02 06:43:04;;;;;;;64.47;17.05;;;;;;;;;;4973820;28;20046;-89
2024/01/02 06:45:31;;;;;;;77.68;16.35;;;;;;;;;;4970528;28;20068;-90
2024/01/02 06:47:58;;;;;;;70.18;15.95;;;;;;;;;;4971066;28;20451;-88
2024/01/02 06:50:25;;;;;;;70.32;15.82;;;;;;;;;;4972865;28;20150;-87
2024/01/02 06:52:53;;;;;;;68.40;16.40;;;;;;;;;;4971657;28;20055;-87
2024/01/02 06:55:19;;;;;;;86.45;17.00;;;;;;;;;;4969701;28;20039;-87
2024/01/02 06:57:47;;;;;;;81.15;17.33;;;;;;;;;;4970127;28;20051;-89
2024/01/02 07:00:14;;;;;;;81.15;17.00;;;;;;;;;;4970173;28;20479;-88
2024/01/02 07:02:41;;;;;;;100.10;17.83;;;;;;;;;;4972281;28;20082;-89
2024/01/02 07:05:08;;;;;;;64.78;15.60;;;;;;;;;;4971955;28;20505;-85
2024/01/02 07:07:35;;;;;;;61.42;17.05;;;;;;;;;;4973227;28;20039;-90
2024/01/02 07:10:02;;;;;;;123.43;21.45;;;;;;;;;;4970770;28;20490;-89
2024/01/02 07:12:28;;;;;;;63.60;15.10;;;;;;;;;;4972935;28;20034;-90
2024/01/02 07:14:55;;;;;;;58.38;14.93;;;;;;;;;;4973223;28;20199;-89
2024/01/02 07:17:21;;;;;;;116.90;17.85;;;;;;;;;;4971531;28;20395;-89
2024/01/02 07:19:49;;;;;;;79.30;16.42;;;;;;;;;;4971501;28;20042;-88
2024/01/02 07:22:16;;;;;;;100.95;17.58;;;;;;;;;;4972696;28;20035;-89
2024/01/02 07:24:43;;;;;;;121.10;17.77;;;;;;;;;;4969039;28;20479;-90
2024/01/02 07:27:10;;;;;;;104.40;17.95;;;;;;;;;;4970965;28;20051;-89
2024/01/02 07:29:36;;;;;;;75.80;16.48;;;;;;;;;;4971038;28;20043;-90
2024/01/02 07:32:03;;;;;;;113.07;18.58;;;;;;;;;;4969128;28;20049;-89
2024/01/02 07:34:30;;;;;;;82.00;16.95;;;;;;;;;;4971099;28;20038;-90
2024/01/02 07:36:56;;;;;;;73.03;14.95;;;;;;;;;;4971243;28;20049;-90
2024/01/02 07:39:23;;;;;;;131.73;19.88;;;;;;;;;;4971383;28;20490;-89
2024/01/02 07:41:50;;;;;;;71.18;16.90;;;;;;;;;;4972504;28;20034;-89
2024/01/02 07:44:17;;;;;;;69.03;16.30;;;;;;;;;;4971070;28;20039;-89
2024/01/02 07:46:43;;;;;;;115.60;18.80;;;;;;;;;;4972302;28;20042;-90
2024/01/02 07:49:10;;;;;;;55.33;16.20;;;;;;;;;;4970802;28;20117;-89
2024/01/02 07:51:37;;;;;;;82.75;17.48;;;;;;;;;;4969112;28;20073;-90
2024/01/02 07:54:04;;;;;;;114.50;18.15;;;;;;;;;;4970428;28;20050;-90
2024/01/02 07:56:32;;;;;;;52.85;14.10;;;;;;;;;;4971775;28;20596;-89
2024/01/02 07:58:58;;;;;;;64.93;15.15;;;;;;;;;;4972182;28;20474;-89
2024/01/02 08:01:25;;;;;;;96.15;16.27;;;;;;;;;;4971984;28;20072;-89
2024/01/02 08:03:52;;;;;;;66.00;15.18;;;;;;;;;;4972216;28;20085;-88
2024/01/02 08:06:19;;;;;;;60.42;15.52;;;;;;;;;;4970587;28;20061;-89
2024/01/02 08:08:45;;;;;;;98.22;16.20;;;;;;;;;;4970479;28;20760;-89
2024/01/02 08:11:12;;;;;;;57.63;13.50;;;;;;;;;;4966995;28;20053;-89
2024/01/02 08:13:39;;;;;;;42.50;12.68;;;;;;;;;;4972017;28;20117;-89
2024/01/02 08:16:05;;;;;;;74.25;14.98;;;;;;;;;;4964549;28;20848;-89
2024/01/02 08:18:40;;;;;;;62.95;14.13;;;;;;;;;;4968519;28;20046;-90
2024/01/02 08:21:08;;;;;;;63.25;13.93;;;;;;;;;;4969019;28;20034;-89
2024/01/02 08:23:38;;;;;;;59.95;12.30;;;;;;;;;;4971781;28;20074;-89
2024/01/02 08:26:10;;;;;;;65.68;13.88;;;;;;;;;;4968078;28;20041;-89
2024/01/02 08:28:37;;;;;;;48.33;12.45;;;;;;;;;;4971019;28;20041;-89
2024/01/02 08:31:03;;;;;;;57.50;11.75;;;;;;;;;;4976806;28;20050;-89
2024/01/02 08:33:30;;;;;;;51.30;11.30;;;;;;;;;;4971604;28;20049;-89
2024/01/02 08:35:57;;;;;;;49.47;10.80;;;;;;;;;;4971140;28;20051;-89
2024/01/02 08:38:24;;;;;;;58.00;10.95;;;;;;;;;;4968961;28;20038;-89
2024/01/02 08:40:50;;;;;;;54.70;11.20;;;;;;;;;;4971099;28;20509;-90
2024/01/02 08:43:17;;;;;;;64.75;11.32;;;;;;;;;;4969942;28;20379;-90
2024/01/02 08:45:44;;;;;;;73.32;12.25;;;;;;;;;;4946734;28;20043;-90
2024/01/02 08:48:11;;;;;;;58.63;15.15;;;;;;;;;;4970359;28;20078;-91
2024/01/02 08:50:42;;;;;;;62.97;17.60;;;;;;;;;;4970103;28;20045;-91
2024/01/02 08:53:10;;;;;;;66.40;17.33;;;;;;;;;;4971261;28;20068;-91
2024/01/02 08:55:38;;;;;;;67.10;18.42;;;;;;;;;;4969664;28;20143;-92
2024/01/02 08:58:05;;;;;;;78.45;18.38;;;;;;;;;;4967846;28;20043;-92
2024/01/02 09:00:32;;;;;;;69.32;15.95;;;;;;;;;;4969919;28;20505;-91
2024/01/02 09:03:02;;;;;;;58.38;13.52;;;;;;;;;;4969165;28;20035;-91
2024/01/02 09:05:29;;;;;;;61.17;12.10;;;;;;;;;;4969586;28;20038;-91
2024/01/02 09:07:56;;;;;;;60.33;12.07;;;;;;;;;;4970668;28;20101;-91
2024/01/02 09:10:22;;;;;;;62.28;11.38;;;;;;;;;;4970841;28;20553;-91
2024/01/02 09:12:49;;;;;;;76.30;13.77;;;;;;;;;;4970893;28;20058;-91
2024/01/02 09:15:18;;;;;;;63.38;12.10;;;;;;;;;;4969695;28;20042;-91
2024/01/02 09:17:44;;;;;;;60.30;11.80;;;;;;;;;;4971173;28;20049;-89
2024/01/02 09:20:11;;;;;;;73.60;12.25;;;;;;;;;;4970535;28;20063;-92
2024/01/02 09:22:38;;;;;;;52.60;11.07;;;;;;;;;;4970633;28;20042;-90
2024/01/02 09:25:05;;;;;;;42.70;10.88;;;;;;;;;;4969337;28;20034;-90
2024/01/02 09:27:32;;;;;;;39.58;9.85;;;;;;;;;;4970749;28;20054;-91
2024/01/02 09:29:59;;;;;;;47.80;10.63;;;;;;;;;;4970685;28;20134;-90
2024/01/02 09:32:26;;;;;;;50.40;9.90;;;;;;;;;;4970251;28;20039;-90
2024/01/02 09:34:53;;;;;;;69.05;11.27;;;;;;;;;;4970513;28;20042;-90
2024/01/02 09:37:19;;;;;;;71.63;11.45;;;;;;;;;;4970730;28;20069;-91
2024/01/02 09:39:46;;;;;;;50.00;10.70;;;;;;;;;;4970395;28;20407;-91
2024/01/02 09:42:25;;;;;;;59.25;11.18;;;;;;;;;;4969236;28;20046;-90
2024/01/02 09:45:07;;;;;;;53.45;10.40;;;;;;;;;;4983482;28;20819;-91
2024/01/02 09:47:40;;;;;;;76.75;12.27;;;;;;;;;;4966686;28;20118;-91
2024/01/02 09:50:12;;;;;;;40.95;10.27;;;;;;;;;;4969320;28;20061;-91
2024/01/02 09:52:58;;;;;;;36.92;10.50;;;;;;;;;;4967818;28;20043;-91
2024/01/02 09:55:27;;;;;;;86.60;13.80;;;;;;;;;;4969398;28;20134;-90
2024/01/02 09:58:02;;;;;;;67.78;13.73;;;;;;;;;;4970000;28;20078;-91
2024/01/02 10:00:48;;;;;;;59.15;14.13;;;;;;;;;;4985863;28;20469;-91
2024/01/02 10:03:36;;;;;;;85.28;16.58;;;;;;;;;;4988459;28;20042;-91
2024/01/02 10:06:06;;;;;;;72.40;15.35;;;;;;;;;;4974113;28;20138;-91
2024/01/02 10:08:53;;;;;;;78.47;14.85;;;;;;;;;;4969897;28;20569;-90
2024/01/02 10:11:22;;;;;;;61.25;14.18;;;;;;;;;;4987131;28;20039;-91
2024/01/02 10:14:12;;;;;;;53.42;14.13;;;;;;;;;;4997557;28;20027;-91
2024/01/02 10:16:40;;;;;;;63.95;14.05;;;;;;;;;;4917950;28;20059;-90
2024/01/02 10:19:18;;;;;;;42.05;14.68;;;;;;;;;;4907640;29;20055;-90
2024/01/02 10:21:50;;;;;;;52.85;13.57;;;;;;;;;;4888268;29;20057;-90
2024/01/02 10:24:32;;;;;;;88.88;16.73;;;;;;;;;;4910258;29;20044;-90
2024/01/02 10:27:18;;;;;;;85.13;16.50;;;;;;;;;;4905376;29;20048;-90
2024/01/02 10:29:45;;;;;;;91.78;19.25;;;;;;;;;;4908829;29;20055;-90
2024/01/02 10:32:13;;;;;;;69.63;19.75;;;;;;;;;;4907233;29;20123;-90
2024/01/02 10:34:50;;;;;;;56.67;18.63;;;;;;;;;;4912578;29;20409;-89
2024/01/02 10:37:21;;;;;;;63.50;18.40;;;;;;;;;;4914210;29;20056;-91
2024/01/02 10:40:04;;;;;;;129.80;21.70;;;;;;;;;;4911394;29;20579;-90
2024/01/02 10:42:34;;;;;;;47.15;16.20;;;;;;;;;;4913991;29;20053;-91
2024/01/02 10:45:13;;;;;;;63.25;16.67;;;;;;;;;;4907255;29;20401;-94
2024/01/02 10:47:40;;;;;;;75.43;18.42;;;;;;;;;;4914526;29;20071;-91
2024/01/02 10:50:11;;;;;;;70.93;17.38;;;;;;;;;;4903882;29;20052;-91
2024/01/02 10:52:38;;;;;;;72.32;16.73;;;;;;;;;;4893390;29;20096;-91
2024/01/02 10:55:28;;;;;;;82.38;17.20;;;;;;;;;;4971690;28;20074;-91
2024/01/02 10:58:07;;;;;;;80.32;16.23;;;;;;;;;;4971113;28;20130;-92
2024/01/02 11:00:54;;;;;;;48.75;14.65;;;;;;;;;;4973058;28;20039;-90
2024/01/02 11:50:57;;;;;;;989.22;102.43;;;;;;;;;;4917327;28;20038;-83
2024/01/02 11:53:34;;;;;;;1124.65;121.68;;;;;;;;;;4902858;28;20038;-85
2024/01/02 11:56:06;;;;;;;1007.13;104.57;;;;;;;;;;4911175;28;20383;-85
2024/01/02 11:58:57;;;;;;;956.70;98.32;;;;;;;;;;4911698;28;20118;-85
2024/01/02 12:01:31;;;;;;;1123.95;117.40;;;;;;;;;;4907942;28;20042;-84
2024/01/02 12:04:03;;;;;;;1020.53;106.50;;;;;;;;;;4908860;28;20049;-88
2024/01/02 12:06:30;;;;;;;667.03;68.10;;;;;;;;;;4912177;28;21192;-87
2024/01/02 12:09:04;;;;;;;895.67;91.15;;;;;;;;;;4914378;28;20054;-85
2024/01/02 12:11:34;;;;;;;853.08;86.40;;;;;;;;;;4894612;28;20590;-83
2024/01/02 12:14:06;;;;;;;875.28;89.28;;;;;;;;;;4893049;28;20124;-84
2024/01/02 12:16:38;;;;;;;821.47;82.80;;;;;;;;;;4909658;28;20160;-86
2024/01/02 12:19:07;;;;;;;858.50;87.82;;;;;;;;;;4907689;28;20539;-84
2024/01/02 12:21:39;;;;;;;820.42;82.25;;;;;;;;;;4904254;28;20041;-85
2024/01/02 12:24:07;;;;;;;833.63;84.50;;;;;;;;;;4911332;28;20041;-84
2024/01/02 12:26:35;;;;;;;864.78;88.90;;;;;;;;;;4907151;28;21067;-84
2024/01/02 12:29:02;;;;;;;834.22;85.82;;;;;;;;;;4903269;28;20050;-83
2024/01/02 12:31:41;;;;;;;964.17;100.30;;;;;;;;;;4901675;28;20065;-84
2024/01/02 12:34:31;;;;;;;848.38;86.85;;;;;;;;;;4900866;28;20046;-85
2024/01/02 12:37:12;;;;;;;827.47;84.43;;;;;;;;;;4905777;28;20116;-85
2024/01/02 12:39:39;;;;;;;803.35;83.50;;;;;;;;;;4891076;28;21319;-87
2024/01/02 12:42:11;;;;;;;476.25;47.15;;;;;;;;;;4949923;28;20203;-86
2024/01/02 12:44:40;;;;;;;711.05;71.15;;;;;;;;;;4930867;28;20037;-87
2024/01/02 12:47:10;;;;;;;650.65;65.63;;;;;;;;;;4933399;28;20856;-86
2024/01/02 12:49:43;;;;;;;686.05;69.30;;;;;;;;;;4918143;28;20324;-87
2024/01/02 12:52:12;;;;;;;754.83;75.70;;;;;;;;;;4924052;28;20145;-87
2024/01/02 12:54:41;;;;;;;848.80;87.00;;;;;;;;;;4911843;28;20679;-89
2024/01/02 12:57:09;;;;;;;771.70;77.88;;;;;;;;;;4915746;28;21095;-88
2024/01/02 12:59:37;;;;;;;770.92;77.90;;;;;;;;;;4916785;28;20104;-88
2024/01/02 13:02:07;;;;;;;801.58;81.63;;;;;;;;;;4910623;28;20551;-85
2024/01/02 13:04:37;;;;;;;829.10;84.68;;;;;;;;;;4910409;28;20066;-84
2024/01/02 13:07:06;;;;;;;833.47;85.95;;;;;;;;;;4904359;28;20041;-84
2024/01/02 13:09:33;;;;;;;820.90;84.13;;;;;;;;;;4905221;28;22370;-85
2024/01/02 13:12:01;;;;;;;829.38;87.10;;;;;;;;;;4905664;28;20038;-84
2024/01/02 13:14:28;;;;;;;832.08;90.70;;;;;;;;;;4906182;28;20038;-87
2024/01/02 13:16:55;;;;;;;824.95;88.63;;;;;;;;;;4905393;28;20057;-86
2024/01/02 13:19:22;;;;;;;963.47;104.13;;;;;;;;;;4903720;28;20045;-84
2024/01/02 13:21:49;;;;;;;837.72;87.38;;;;;;;;;;4907053;28;20044;-85
2024/01/02 13:24:16;;;;;;;788.75;82.47;;;;;;;;;;4914371;28;20038;-85
2024/01/02 13:26:43;;;;;;;870.20;92.00;;;;;;;;;;4908509;28;21126;-87
2024/01/02 13:29:11;;;;;;;835.00;86.68;;;;;;;;;;4911292;28;21246;-85
2024/01/02 13:31:38;;;;;;;775.75;80.15;;;;;;;;;;4909928;28;20030;-85
2024/01/02 13:34:05;;;;;;;819.80;85.95;;;;;;;;;;4913738;28;20034;-85
2024/01/02 13:36:31;;;;;;;766.28;78.80;;;;;;;;;;4912254;28;20037;-85
2024/01/02 13:38:59;;;;;;;827.88;85.30;;;;;;;;;;4908589;28;20049;-87
2024/01/02 13:41:27;;;;;;;857.05;87.60;;;;;;;;;;4892071;28;21205;-87
2024/01/02 13:44:06;;;;;;;791.95;80.47;;;;;;;;;;4909676;28;20049;-84
2024/01/02 13:46:32;;;;;;;834.08;84.82;;;;;;;;;;4909285;28;21372;-85
2024/01/02 13:48:59;;;;;;;807.50;81.60;;;;;;;;;;4911072;28;20137;-85
2024/01/02 13:51:28;;;;;;;850.08;86.35;;;;;;;;;;4909448;28;20048;-85
2024/01/02 13:54:00;;;;;;;944.22;98.07;;;;;;;;;;4911723;28;20148;-85
2024/01/02 13:56:27;;;;;;;742.70;73.88;;;;;;;;;;4913883;28;20041;-85
2024/01/02 13:59:01;;;;;;;819.20;83.13;;;;;;;;;;4908975;28;20052;-84
2024/01/02 14:01:28;;;;;;;961.47;101.03;;;;;;;;;;4910355;28;20038;-84
2024/01/02 14:03:55;;;;;;;720.67;73.00;;;;;;;;;;4913745;28;20068;-85
2024/01/02 14:06:22;;;;;;;817.35;83.20;;;;;;;;;;4911326;28;20041;-85
2024/01/02 14:09:07;;;;;;;812.97;82.45;;;;;;;;;;4911660;28;20050;-85
2024/01/02 14:11:33;;;;;;;738.92;75.00;;;;;;;;;;4899907;28;20978;-84
2024/01/02 14:14:14;;;;;;;858.03;87.30;;;;;;;;;;4895761;28;21050;-85
2024/01/02 14:16:47;;;;;;;829.75;83.88;;;;;;;;;;4914736;28;20046;-87
2024/01/02 14:19:18;;;;;;;726.00;72.68;;;;;;;;;;4915596;28;20108;-87
2024/01/02 14:21:46;;;;;;;790.58;80.45;;;;;;;;;;4918216;28;20034;-87
2024/01/02 14:24:18;;;;;;;798.28;80.25;;;;;;;;;;4896674;28;20054;-87
2024/01/02 14:26:52;;;;;;;772.30;77.72;;;;;;;;;;4914495;28;20049;-87
2024/01/02 14:29:23;;;;;;;878.05;90.82;;;;;;;;;;4914901;28;20033;-86
2024/01/02 14:32:11;;;;;;;899.45;93.00;;;;;;;;;;4929509;28;20052;-86
2024/01/02 14:34:44;;;;;;;680.58;68.60;;;;;;;;;;4938439;28;20425;-85
2024/01/02 14:37:34;;;;;;;892.00;91.38;;;;;;;;;;4914535;28;20132;-83
2024/01/02 14:40:01;;;;;;;775.10;75.68;;;;;;;;;;4893943;28;20060;-85
2024/01/02 14:42:38;;;;;;;745.97;75.97;;;;;;;;;;4927014;28;20507;-86
2024/01/02 14:45:28;;;;;;;981.55;100.57;;;;;;;;;;4888738;28;21202;-83
2024/01/02 14:47:54;;;;;;;982.05;101.10;;;;;;;;;;4868730;28;20063;-85
2024/01/02 14:50:31;;;;;;;1091.07;114.18;;;;;;;;;;4887665;28;21040;-85
2024/01/02 14:53:19;;;;;;;968.08;101.15;;;;;;;;;;4892006;28;20050;-85
2024/01/02 14:56:17;;;;;;;789.58;79.53;;;;;;;;;;4904850;28;20046;-85
2024/01/02 14:58:54;;;;;;;896.20;91.57;;;;;;;;;;4896365;28;20050;-85
2024/01/02 15:01:28;;;;;;;898.88;92.20;;;;;;;;;;4886735;28;20989;-85
2024/01/02 15:04:03;;;;;;;880.20;90.53;;;;;;;;;;4900157;28;20049;-85
2024/01/02 15:06:35;;;;;;;749.88;75.43;;;;;;;;;;4917039;28;20041;-85
2024/01/02 15:09:07;;;;;;;899.53;91.53;;;;;;;;;;4903876;28;20041;-85
2024/01/02 15:11:38;;;;;;;917.88;94.35;;;;;;;;;;4890280;28;20049;-84
2024/01/02 15:14:08;;;;;;;830.45;83.35;;;;;;;;;;4908406;28;20053;-83